Terminal Aerodrome Forecast
Issued by NWS

Home | Current Version | Previous Version | Graphics & Text | Print | Product List | Glossary On
Versions: 1 2 3 4 5 6 7 8 9 10 11 12 13 14 15 16 17 18 19
677
FTUS43 KMPX 231630 AAB
TAFRWF
TAF AMD
KRWF 231630Z 2317/2412 30010KT 3SM BR OVC005
     FM231715 31008KT P6SM SCT020
     FM240900 11003KT 6SM BR OVC015=

USA.gov is the U.S. government's official web portal to all federal, state and local government web resources and services.